Time;durP1;ratioP1;P1;durP2;ratioP2;P2;SDS_P1;SDS_P2;PMS_P1;PMS_P2;Temp;Humidity;BMP_temperature;BMP_pressure;BME280_temperature;BME280_humidity;BME280_pressure;Samples;Min_cycle;Max_cycle;Signal;HPM_P1;HPM_P2
2021/12/04 00:00:44;;;;;;;9.88;6.70;;;;;;;0.76;100.00;98468.88;5154177;27;20051;-50
2021/12/04 00:03:12;;;;;;;19.35;7.13;;;;;;;0.63;100.00;98459.03;5154282;27;20050;-52
2021/12/04 00:05:40;;;;;;;12.82;6.93;;;;;;;0.63;100.00;98465.25;5153934;27;20137;-51
2021/12/04 00:08:06;;;;;;;22.90;8.73;;;;;;;0.67;100.00;98468.09;5153925;27;20047;-50
2021/12/04 00:10:33;;;;;;;9.70;6.47;;;;;;;0.67;100.00;98449.22;5153834;27;20488;-50
2021/12/04 00:12:59;;;;;;;8.60;5.93;;;;;;;0.64;100.00;98455.25;5154151;27;20047;-50
2021/12/04 00:15:25;;;;;;;17.92;7.25;;;;;;;0.65;100.00;98459.50;5153702;27;20139;-53
2021/12/04 00:17:51;;;;;;;9.90;5.63;;;;;;;0.62;100.00;98447.44;5154032;27;20497;-51
2021/12/04 00:20:18;;;;;;;10.00;5.38;;;;;;;0.52;100.00;98445.06;5153653;27;20511;-50
2021/12/04 00:22:45;;;;;;;7.13;4.82;;;;;;;0.41;100.00;98447.28;5153780;27;20050;-49
2021/12/04 00:25:11;;;;;;;7.25;4.65;;;;;;;0.26;100.00;98436.94;5153737;27;20057;-52
2021/12/04 00:27:38;;;;;;;7.32;4.68;;;;;;;0.15;100.00;98436.44;5152999;27;20052;-54
2021/12/04 00:30:06;;;;;;;8.00;4.85;;;;;;;0.06;100.00;98424.84;5153649;27;20153;-51
2021/12/04 00:32:33;;;;;;;9.07;4.97;;;;;;;-0.10;100.00;98440.66;5153500;27;20105;-49
2021/12/04 00:35:08;;;;;;;13.93;6.10;;;;;;;-0.18;100.00;98454.88;5153398;27;20043;-54
2021/12/04 00:51:16;;;;;;;4.93;4.15;;;;;;;0.36;100.00;98484.38;5153423;27;20096;-50
2021/12/04 00:53:43;;;;;;;9.40;4.70;;;;;;;0.32;100.00;98492.28;5153233;27;20098;-52
2021/12/04 00:56:10;;;;;;;6.20;4.78;;;;;;;0.36;100.00;98501.34;5153010;27;20049;-49
2021/12/04 00:58:36;;;;;;;7.03;4.43;;;;;;;0.42;100.00;98497.38;5153044;27;20066;-50
2021/12/04 01:01:03;;;;;;;8.10;4.78;;;;;;;0.49;100.00;98491.53;5153381;27;20057;-50
2021/12/04 01:03:29;;;;;;;6.82;4.78;;;;;;;0.49;100.00;98486.13;5152971;27;20051;-51
2021/12/04 01:05:55;;;;;;;9.65;5.43;;;;;;;0.52;100.00;98484.72;5153025;27;20051;-50
2021/12/04 01:08:22;;;;;;;9.35;4.80;;;;;;;0.50;100.00;98479.66;5152887;27;20071;-53
2021/12/04 01:10:48;;;;;;;13.73;5.57;;;;;;;0.51;100.00;98483.94;5153073;27;20055;-51
2021/12/04 01:13:15;;;;;;;8.27;4.93;;;;;;;0.46;100.00;98475.97;5152943;27;20084;-50
2021/12/04 01:15:44;;;;;;;6.05;4.43;;;;;;;0.39;100.00;98470.25;5152971;27;20053;-52
2021/12/04 01:18:11;;;;;;;5.45;4.32;;;;;;;0.30;100.00;98464.06;5152796;27;20046;-54
2021/12/04 01:20:39;;;;;;;5.60;3.78;;;;;;;0.25;100.00;98467.69;5152943;27;20047;-52
2021/12/04 01:23:05;;;;;;;9.40;4.53;;;;;;;0.23;100.00;98459.13;5152585;27;20051;-50
2021/12/04 01:25:31;;;;;;;9.70;4.88;;;;;;;0.28;100.00;98453.59;5152767;27;20050;-51
2021/12/04 01:27:58;;;;;;;5.32;3.75;;;;;;;0.20;100.00;98449.78;5152492;27;20055;-51
2021/12/04 01:30:25;;;;;;;10.27;4.68;;;;;;;0.16;100.00;98438.00;5152529;27;20528;-50
2021/12/04 01:32:51;;;;;;;10.65;5.35;;;;;;;0.19;100.00;98432.00;5152393;27;20494;-52
2021/12/04 01:35:17;;;;;;;8.02;4.28;;;;;;;0.13;100.00;98430.56;5152700;27;20425;-53
2021/12/04 01:37:43;;;;;;;12.82;4.38;;;;;;;0.12;100.00;98430.88;5152732;27;20047;-54
2021/12/04 01:40:10;;;;;;;8.20;4.60;;;;;;;0.06;100.00;98438.31;5152499;27;20051;-51
2021/12/04 01:42:37;;;;;;;7.38;4.15;;;;;;;-0.04;100.00;98438.59;5152675;27;20057;-52
2021/12/04 01:45:05;;;;;;;6.65;3.90;;;;;;;-0.01;100.00;98437.97;5152358;27;20072;-51
2021/12/04 01:47:31;;;;;;;6.70;4.50;;;;;;;-0.07;100.00;98437.34;5151699;27;20129;-50
2021/12/04 01:50:00;;;;;;;6.68;3.75;;;;;;;-0.04;100.00;98447.47;5152272;27;20068;-50
2021/12/04 01:52:26;;;;;;;5.60;4.15;;;;;;;-0.04;100.00;98438.59;5152451;27;20047;-50
2021/12/04 01:54:52;;;;;;;8.98;4.82;;;;;;;-0.01;100.00;98444.16;5151958;27;20527;-50
2021/12/04 01:57:20;;;;;;;12.88;5.53;;;;;;;0.02;100.00;98458.13;5152130;27;20505;-50
2021/12/04 01:59:47;;;;;;;8.30;4.22;;;;;;;0.02;100.00;98468.91;5152049;27;20046;-50
2021/12/04 02:02:14;;;;;;;11.07;4.47;;;;;;;0.03;100.00;98468.56;5152306;27;20057;-50
2021/12/04 02:04:41;;;;;;;4.25;3.85;;;;;;;0.07;100.00;98471.44;5152123;27;20050;-50
2021/12/04 02:07:09;;;;;;;7.22;4.07;;;;;;;0.08;100.00;98473.03;5151890;27;20061;-50
2021/12/04 02:09:37;;;;;;;6.97;4.00;;;;;;;0.08;100.00;98478.44;5152218;27;20405;-50
2021/12/04 02:12:05;;;;;;;6.07;4.30;;;;;;;0.07;100.00;98488.44;5151915;27;20406;-50
2021/12/04 02:14:31;;;;;;;10.65;5.32;;;;;;;0.09;100.00;98486.19;5152217;27;20047;-51
2021/12/04 02:16:58;;;;;;;10.88;4.70;;;;;;;0.07;100.00;98493.00;5151696;27;20103;-49
2021/12/04 02:19:25;;;;;;;12.00;4.47;;;;;;;0.01;100.00;98497.75;5151952;27;20477;-50
2021/12/04 02:21:52;;;;;;;10.27;5.28;;;;;;;0.05;100.00;98500.63;5151700;27;20047;-50
2021/12/04 02:24:18;;;;;;;4.03;3.60;;;;;;;0.06;100.00;98497.59;5151675;27;20106;-51
2021/12/04 02:26:47;;;;;;;6.90;4.40;;;;;;;0.09;100.00;98494.28;5151248;27;20047;-50
2021/12/04 02:29:14;;;;;;;9.25;4.03;;;;;;;0.18;100.00;98497.03;5151792;27;20137;-50
2021/12/04 02:31:40;;;;;;;9.52;5.10;;;;;;;0.22;100.00;98485.28;5151840;27;20050;-49
2021/12/04 02:34:06;;;;;;;10.20;4.60;;;;;;;0.27;100.00;98478.16;5151538;27;20073;-49
2021/12/04 02:36:33;;;;;;;9.43;4.80;;;;;;;0.31;100.00;98461.06;5151896;27;20047;-50
2021/12/04 02:39:00;;;;;;;17.35;6.53;;;;;;;0.33;100.00;98450.72;5151330;27;20173;-49
2021/12/04 02:41:26;;;;;;;6.80;3.65;;;;;;;0.23;100.00;98434.84;5151838;27;20051;-50
2021/12/04 02:43:52;;;;;;;12.27;5.57;;;;;;;0.04;100.00;98418.19;5151488;27;20469;-50
2021/12/04 02:46:18;;;;;;;13.35;5.80;;;;;;;-0.24;100.00;98413.81;5151580;27;20042;-52
2021/12/04 02:48:47;;;;;;;12.75;5.28;;;;;;;-0.43;100.00;98428.63;5151287;27;20057;-50
2021/12/04 02:51:15;;;;;;;6.05;3.80;;;;;;;-0.54;100.00;98452.34;5151432;27;20142;-52
2021/12/04 02:53:41;;;;;;;16.02;5.85;;;;;;;-0.54;100.00;98490.03;5151105;27;20068;-52
2021/12/04 02:56:10;;;;;;;6.90;4.00;;;;;;;-0.42;100.00;98509.13;5151341;27;20051;-54
2021/12/04 02:58:38;;;;;;;11.88;5.03;;;;;;;-0.28;100.00;98519.81;5152428;27;20091;-53
2021/12/04 03:01:04;;;;;;;7.93;4.45;;;;;;;-0.16;100.00;98530.03;5154939;27;20473;-53
2021/12/04 03:03:31;;;;;;;9.32;4.40;;;;;;;-0.07;100.00;98530.84;5155382;27;20412;-53
2021/12/04 03:05:58;;;;;;;7.03;3.95;;;;;;;0.03;100.00;98535.94;5154721;27;20042;-50
2021/12/04 03:08:25;;;;;;;10.98;4.65;;;;;;;0.13;100.00;98535.69;5155229;27;20051;-51
2021/12/04 03:10:52;;;;;;;10.45;5.15;;;;;;;0.19;100.00;98531.72;5154760;27;20043;-53
2021/12/04 03:13:21;;;;;;;7.78;4.18;;;;;;;0.25;100.00;98532.41;5155086;27;20046;-52
2021/12/04 03:15:55;;;;;;;5.68;3.80;;;;;;;0.32;100.00;98527.34;5154644;27;20425;-51
2021/12/04 03:18:21;;;;;;;;;;;;;;;0.33;100.00;98515.44;5155666;27;20046;-52
2021/12/04 03:20:47;;;;;;;5.03;3.78;;;;;;;0.33;100.00;98515.44;5154762;27;19929;-50
2021/12/04 03:23:19;;;;;;;5.95;4.10;;;;;;;0.42;100.00;98510.09;5154513;27;20047;-51
2021/12/04 03:25:49;;;;;;;4.57;3.88;;;;;;;0.36;100.00;98490.56;5154770;27;20050;-49
2021/12/04 03:28:17;;;;;;;5.88;3.92;;;;;;;0.39;100.00;98495.31;5153957;27;20053;-52
2021/12/04 03:30:48;;;;;;;7.22;4.82;;;;;;;0.40;100.00;98488.84;5154964;27;20046;-53
2021/12/04 03:41:27;;;;;;;8.55;5.00;;;;;;;0.27;100.00;98516.72;5154634;27;20062;-50
2021/12/04 03:43:53;;;;;;;7.25;4.72;;;;;;;0.36;100.00;98524.81;5154785;27;20051;-51
2021/12/04 03:46:20;;;;;;;9.20;5.68;;;;;;;0.37;100.00;98535.31;5154408;27;20042;-50
2021/12/04 03:48:53;;;;;;;8.90;5.80;;;;;;;0.42;100.00;98545.94;5154332;27;20050;-52
2021/12/04 03:51:20;;;;;;;19.27;7.80;;;;;;;0.47;100.00;98556.59;5154052;27;20082;-53
2021/12/04 03:53:47;;;;;;;8.27;5.40;;;;;;;0.46;100.00;98556.88;5154184;27;20053;-52
2021/12/04 03:56:15;;;;;;;10.52;6.18;;;;;;;0.38;100.00;98547.66;5153898;27;20138;-53
2021/12/04 03:58:41;;;;;;;10.57;6.00;;;;;;;0.37;100.00;98548.78;5154420;27;20433;-50
2021/12/04 04:01:07;;;;;;;10.32;5.85;;;;;;;0.39;100.00;98567.34;5153965;27;20053;-52
2021/12/04 04:03:34;;;;;;;11.32;6.60;;;;;;;0.39;100.00;98570.03;5154205;27;20058;-51
2021/12/04 04:06:00;;;;;;;13.38;7.65;;;;;;;0.30;100.00;98577.28;5154007;27;20053;-50
2021/12/04 04:08:27;;;;;;;10.85;7.82;;;;;;;0.42;100.00;98580.19;5154019;27;20047;-49
2021/12/04 04:10:54;;;;;;;12.52;7.57;;;;;;;0.36;100.00;98578.75;5153872;27;20055;-52
2021/12/04 04:13:21;;;;;;;11.25;7.88;;;;;;;0.36;100.00;98581.44;5153938;27;20080;-52
2021/12/04 04:15:48;;;;;;;14.88;7.72;;;;;;;0.28;100.00;98583.00;5153947;27;20497;-50
2021/12/04 04:18:14;;;;;;;14.13;8.27;;;;;;;0.23;100.00;98577.72;5153827;27;20078;-54
2021/12/04 04:20:41;;;;;;;12.50;8.48;;;;;;;0.32;100.00;98575.09;5154003;27;20067;-49
2021/12/04 04:23:07;;;;;;;13.52;8.27;;;;;;;0.31;100.00;98577.00;5153810;27;20053;-50
2021/12/04 04:25:34;;;;;;;14.30;8.35;;;;;;;0.38;100.00;98577.34;5154252;27;20057;-50
2021/12/04 04:28:00;;;;;;;17.55;9.20;;;;;;;0.42;100.00;98580.19;5153473;27;20046;-49
2021/12/04 04:30:27;;;;;;;13.27;8.63;;;;;;;0.25;100.00;98570.16;5154070;27;20051;-50
2021/12/04 04:32:54;;;;;;;14.00;9.52;;;;;;;0.35;100.00;98572.56;5153628;27;20054;-49
2021/12/04 04:35:22;;;;;;;21.42;11.25;;;;;;;0.47;100.00;98569.28;5153447;27;20133;-52
2021/12/04 04:37:55;;;;;;;18.83;10.20;;;;;;;0.43;100.00;98554.81;5153879;27;20054;-50
2021/12/04 05:00:09;;;;;;;24.40;11.95;;;;;;;0.44;100.00;98448.56;5153171;27;20050;-49
2021/12/04 05:11:04;;;;;;;20.85;12.20;;;;;;;0.56;100.00;98439.81;5152925;27;20098;-50
2021/12/04 05:13:31;;;;;;;20.75;12.90;;;;;;;0.51;100.00;98429.22;5153005;27;20812;-50
2021/12/04 05:15:58;;;;;;;23.63;13.98;;;;;;;0.62;100.00;98425.88;5153036;27;20496;-50
2021/12/04 05:18:34;;;;;;;22.50;14.05;;;;;;;0.65;100.00;98425.22;5152980;27;20046;-53
2021/12/04 05:21:05;;;;;;;31.08;16.05;;;;;;;0.74;100.00;98425.25;5151554;27;20046;-52
2021/12/04 05:23:33;;;;;;;24.23;15.27;;;;;;;0.77;100.00;98423.78;5152916;27;20420;-53
2021/12/04 05:26:01;;;;;;;29.38;15.65;;;;;;;0.74;100.00;98430.66;5152489;27;20057;-50
2021/12/04 05:28:27;;;;;;;26.45;14.10;;;;;;;0.78;100.00;98434.28;5152231;27;20057;-52
2021/12/04 05:30:53;;;;;;;27.73;14.25;;;;;;;0.75;100.00;98426.81;5152341;27;20457;-53
2021/12/04 05:33:19;;;;;;;29.20;15.68;;;;;;;0.84;100.00;98432.22;5152313;27;20046;-50
2021/12/04 05:35:48;;;;;;;34.72;15.32;;;;;;;0.87;100.00;98424.28;5152542;27;20052;-53
2021/12/04 05:38:15;;;;;;;35.13;15.82;;;;;;;0.90;100.00;98429.06;5152435;27;20078;-51
2021/12/04 05:40:41;;;;;;;22.80;14.02;;;;;;;0.89;100.00;98443.63;5152536;27;20138;-52
2021/12/04 05:43:08;;;;;;;26.02;15.32;;;;;;;0.80;100.00;98447.44;5152395;27;20055;-51
2021/12/04 05:45:39;;;;;;;31.20;14.07;;;;;;;0.82;100.00;98446.03;5152225;27;20129;-51
2021/12/04 05:48:09;;;;;;;23.30;13.60;;;;;;;0.84;100.00;98456.50;5152142;27;20050;-50
2021/12/04 05:51:03;;;;;;;25.00;13.77;;;;;;;0.89;100.00;98459.03;5152479;27;20138;-49
2021/12/04 05:53:40;;;;;;;29.80;14.43;;;;;;;1.02;100.00;98458.06;5152207;27;20145;-51
2021/12/04 05:56:06;;;;;;;30.17;14.10;;;;;;;1.02;100.00;98473.47;5151913;27;20428;-50
2021/12/04 05:58:34;;;;;;;26.70;13.98;;;;;;;1.00;100.00;98473.81;5152171;27;20507;-51
2021/12/04 06:01:06;;;;;;;30.63;14.30;;;;;;;1.02;100.00;98474.28;5151932;27;20050;-51
2021/12/04 06:03:33;;;;;;;30.70;14.35;;;;;;;1.06;100.00;98486.00;5152364;27;20054;-50
2021/12/04 06:06:00;;;;;;;23.92;13.35;;;;;;;1.08;100.00;98489.19;5151853;27;20497;-50
2021/12/04 06:08:27;;;;;;;30.98;13.23;;;;;;;1.06;100.00;98501.41;5152310;27;20432;-50
2021/12/04 06:10:54;;;;;;;23.95;13.10;;;;;;;1.09;100.00;98516.97;5151740;27;20051;-53
2021/12/04 06:13:20;;;;;;;19.23;11.45;;;;;;;1.07;100.00;98525.41;5151738;27;20050;-49
2021/12/04 06:15:47;;;;;;;22.17;10.98;;;;;;;1.20;100.00;98533.66;5151467;27;20053;-50
2021/12/04 06:18:15;;;;;;;27.98;12.27;;;;;;;1.20;100.00;98539.88;5151674;27;20046;-50
2021/12/04 06:23:30;;;;;;;24.15;11.20;;;;;;;1.20;100.00;98556.06;5116477;27;20046;-52
2021/12/04 06:25:56;;;;;;;26.17;11.55;;;;;;;1.18;100.00;98560.97;5151968;27;20047;-50
2021/12/04 06:28:22;;;;;;;24.17;10.63;;;;;;;1.20;100.00;98564.16;5151169;27;20046;-51
2021/12/04 06:30:49;;;;;;;27.85;12.05;;;;;;;1.24;100.00;98570.53;5151932;27;20150;-53
2021/12/04 06:33:17;;;;;;;29.67;10.90;;;;;;;1.24;100.00;98577.81;5151253;27;20417;-51
2021/12/04 06:35:46;;;;;;;24.23;10.45;;;;;;;1.24;100.00;98578.63;5151700;27;20053;-51
2021/12/04 06:38:14;;;;;;;25.23;9.45;;;;;;;1.26;100.00;98575.59;5151787;27;20498;-51
2021/12/04 06:40:41;;;;;;;22.80;10.40;;;;;;;1.22;100.00;98594.34;5151598;27;20083;-52
2021/12/04 06:43:08;;;;;;;21.38;8.98;;;;;;;1.15;100.00;98597.50;5151926;27;20046;-53
2021/12/04 06:45:39;;;;;;;20.77;9.15;;;;;;;1.17;100.00;98611.50;5151650;27;20047;-51
2021/12/04 06:48:08;;;;;;;22.23;8.43;;;;;;;1.14;100.00;98606.72;5151399;27;20050;-51
2021/12/04 06:50:40;;;;;;;14.82;7.20;;;;;;;1.12;100.00;98613.53;5151368;27;20047;-49
2021/12/04 06:53:15;;;;;;;19.10;8.00;;;;;;;1.16;100.00;98625.28;5151606;27;20054;-50
2021/12/04 06:55:44;;;;;;;17.02;7.95;;;;;;;1.23;100.00;98620.22;5151381;27;20142;-51
2021/12/04 06:58:12;;;;;;;16.55;7.75;;;;;;;1.36;100.00;98626.59;5151743;27;20050;-49
2021/12/04 07:00:38;;;;;;;26.45;8.05;;;;;;;1.40;100.00;98617.53;5151249;27;20398;-50
2021/12/04 07:03:06;;;;;;;16.08;8.40;;;;;;;1.52;100.00;98627.69;5151291;27;20050;-51
2021/12/04 07:05:32;;;;;;;11.35;6.63;;;;;;;1.45;100.00;98632.00;5151458;27;20053;-50
2021/12/04 07:07:58;;;;;;;17.90;7.45;;;;;;;1.36;100.00;98640.09;5151345;27;20055;-51
2021/12/04 07:10:24;;;;;;;18.38;8.77;;;;;;;1.38;100.00;98635.19;5151403;27;20114;-49
2021/12/04 07:12:51;;;;;;;14.52;7.35;;;;;;;1.42;100.00;98623.41;5151008;27;20057;-50
2021/12/04 07:15:17;;;;;;;21.17;8.15;;;;;;;1.44;100.00;98619.63;5150960;27;20050;-50
2021/12/04 07:17:43;;;;;;;17.00;8.57;;;;;;;1.45;100.00;98623.91;5150750;27;20054;-52
2021/12/04 07:20:11;;;;;;;14.38;7.32;;;;;;;1.51;100.00;98622.63;5151252;27;20042;-51
2021/12/04 07:22:37;;;;;;;17.83;7.50;;;;;;;1.36;100.00;98611.16;5150954;27;20047;-49
2021/12/04 07:25:05;;;;;;;23.83;8.63;;;;;;;1.46;100.00;98609.28;5150800;27;20061;-53
2021/12/04 07:27:31;;;;;;;16.10;7.80;;;;;;;1.43;100.00;98602.59;5150579;27;20057;-51
2021/12/04 07:29:59;;;;;;;16.80;7.63;;;;;;;1.47;100.00;98603.56;5151001;27;20051;-50
2021/12/04 07:32:25;;;;;;;18.58;8.88;;;;;;;1.46;100.00;98585.75;5150773;27;20141;-51
2021/12/04 07:34:53;;;;;;;13.95;7.40;;;;;;;1.37;100.00;98588.47;5150384;27;20082;-52
2021/12/04 07:37:20;;;;;;;17.48;7.43;;;;;;;1.25;100.00;98591.00;5150829;27;20042;-52
2021/12/04 07:39:46;;;;;;;13.10;7.57;;;;;;;1.21;100.00;98595.44;5150614;27;20042;-51
2021/12/04 07:42:12;;;;;;;27.73;9.35;;;;;;;1.29;100.00;98610.84;5150699;27;20042;-52
2021/12/04 07:44:38;;;;;;;13.10;7.18;;;;;;;1.16;100.00;98612.59;5151676;27;20046;-51
2021/12/04 07:47:05;;;;;;;18.42;7.75;;;;;;;1.14;100.00;98614.03;5154446;27;20095;-53
2021/12/04 07:49:31;;;;;;;13.18;7.53;;;;;;;1.23;100.00;98622.91;5154181;27;20047;-54
2021/12/04 07:51:57;;;;;;;20.75;8.85;;;;;;;1.25;100.00;98633.41;5154228;27;20043;-53
2021/12/04 07:54:24;;;;;;;20.40;8.38;;;;;;;1.06;100.00;98623.69;5154058;27;20577;-53
2021/12/04 07:56:50;;;;;;;15.32;7.72;;;;;;;0.91;100.00;98633.03;5154086;27;20055;-50
2021/12/04 07:59:17;;;;;;;20.45;9.52;;;;;;;1.08;100.00;98634.97;5153964;27;20066;-51
2021/12/04 08:01:43;;;;;;;21.95;8.55;;;;;;;0.97;100.00;98638.28;5153790;27;20070;-51
2021/12/04 08:04:09;;;;;;;23.10;8.65;;;;;;;0.96;100.00;98645.56;5153863;27;20051;-53
2021/12/04 08:06:36;;;;;;;25.48;9.73;;;;;;;0.90;100.00;98644.13;5154014;27;20409;-51
2021/12/04 08:09:03;;;;;;;18.40;8.70;;;;;;;0.91;100.00;98651.94;5153764;27;20497;-54
2021/12/04 08:11:30;;;;;;;21.98;9.32;;;;;;;0.91;100.00;98646.53;5153923;27;20051;-52
2021/12/04 08:13:56;;;;;;;17.77;9.32;;;;;;;0.95;100.00;98646.69;5153789;27;20420;-55
2021/12/04 08:16:24;;;;;;;16.83;9.88;;;;;;;0.77;100.00;98648.56;5154093;27;20087;-51
2021/12/04 08:18:51;;;;;;;21.33;9.80;;;;;;;0.82;100.00;98650.31;5153754;27;20047;-50
2021/12/04 08:21:17;;;;;;;20.17;10.15;;;;;;;0.90;100.00;98660.31;5153829;27;20047;-51
2021/12/04 08:23:43;;;;;;;23.98;11.07;;;;;;;0.89;100.00;98654.13;5153632;27;20058;-52
2021/12/04 08:26:09;;;;;;;22.77;9.70;;;;;;;0.97;100.00;98657.16;5154231;27;20043;-51
2021/12/04 08:28:36;;;;;;;31.00;11.98;;;;;;;0.98;100.00;98656.88;5153031;27;20058;-52
2021/12/04 08:31:03;;;;;;;19.38;10.88;;;;;;;0.97;100.00;98643.66;5153517;27;20405;-50
2021/12/04 08:33:29;;;;;;;28.17;11.43;;;;;;;0.72;100.00;98642.50;5153388;27;20046;-54
2021/12/04 08:35:56;;;;;;;22.67;11.10;;;;;;;0.65;100.00;98643.75;5153386;27;20046;-49
2021/12/04 08:38:23;;;;;;;26.88;11.68;;;;;;;0.87;100.00;98644.78;5153634;27;20074;-50
2021/12/04 08:40:49;;;;;;;24.08;11.43;;;;;;;0.85;100.00;98641.59;5153450;27;20042;-49
2021/12/04 08:43:16;;;;;;;20.48;10.30;;;;;;;0.84;100.00;98643.50;5153450;27;20057;-50
2021/12/04 08:45:43;;;;;;;20.77;10.18;;;;;;;0.69;100.00;98638.50;5153106;27;20069;-51
2021/12/04 08:48:10;;;;;;;23.10;11.15;;;;;;;0.90;100.00;98642.25;5153285;27;20099;-50
2021/12/04 08:50:37;;;;;;;23.33;11.77;;;;;;;0.99;100.00;98638.75;5153203;27;20103;-51
2021/12/04 08:53:05;;;;;;;20.30;11.52;;;;;;;0.91;100.00;98627.63;5153269;27;20058;-53
2021/12/04 08:55:35;;;;;;;27.05;11.10;;;;;;;0.89;100.00;98626.34;5152281;27;20055;-50
2021/12/04 08:58:02;;;;;;;26.42;11.30;;;;;;;0.97;100.00;98624.78;5152394;27;20090;-50
2021/12/04 09:00:30;;;;;;;22.80;11.07;;;;;;;1.09;100.00;98616.88;5152842;27;20050;-50
2021/12/04 09:02:57;;;;;;;22.35;10.18;;;;;;;0.91;100.00;98599.84;5153153;27;20051;-50
2021/12/04 09:05:24;;;;;;;34.15;11.18;;;;;;;0.90;100.00;98585.56;5153031;27;20055;-51
2021/12/04 09:07:51;;;;;;;22.05;11.43;;;;;;;0.99;100.00;98565.88;5152901;27;20043;-50
2021/12/04 09:10:19;;;;;;;24.02;11.40;;;;;;;0.89;100.00;98545.41;5153189;27;20050;-50
2021/12/04 09:12:46;;;;;;;22.73;10.52;;;;;;;0.80;100.00;98541.88;5152889;27;20050;-50
2021/12/04 09:15:16;;;;;;;20.92;10.02;;;;;;;0.63;100.00;98527.28;5153163;27;20102;-50
2021/12/04 09:17:42;;;;;;;19.35;9.07;;;;;;;0.51;100.00;98526.28;5152673;27;20050;-50
2021/12/04 09:20:12;;;;;;;18.48;9.40;;;;;;;0.56;100.00;98537.72;5153222;27;20048;-51
2021/12/04 09:22:38;;;;;;;21.40;10.55;;;;;;;0.57;100.00;98541.22;5152702;27;20047;-50
2021/12/04 09:25:10;;;;;;;19.20;9.32;;;;;;;0.43;100.00;98528.66;5152604;27;20051;-50
2021/12/04 09:27:54;;;;;;;23.90;10.38;;;;;;;0.41;100.00;98535.47;5152366;27;20054;-50
2021/12/04 09:30:43;;;;;;;18.80;9.73;;;;;;;0.36;100.00;98527.50;5152446;27;20505;-52
2021/12/04 10:00:50;;;;;;;21.63;9.40;;;;;;;0.69;100.00;98450.47;5152481;27;20135;-50
2021/12/04 10:03:47;;;;;;;24.30;10.05;;;;;;;0.71;100.00;98471.75;5152281;27;20061;-51
2021/12/04 10:11:09;;;;;;;19.13;8.50;;;;;;;0.54;100.00;98453.63;5152174;27;20107;-53
2021/12/04 10:20:59;;;;;;;20.73;9.20;;;;;;;0.58;100.00;98462.69;5146692;27;20062;-50
2021/12/04 10:23:43;;;;;;;19.85;9.02;;;;;;;0.59;100.00;98439.19;5151694;27;20046;-51
2021/12/04 10:32:24;;;;;;;17.17;8.35;;;;;;;0.68;100.00;98404.94;5151773;27;20095;-50
2021/12/04 10:34:50;;;;;;;16.25;7.70;;;;;;;0.66;100.00;98396.34;5151648;27;20650;-51
2021/12/04 10:37:23;;;;;;;12.82;7.65;;;;;;;0.63;100.00;98367.31;5152033;27;20494;-49
2021/12/04 10:39:49;;;;;;;18.88;9.13;;;;;;;0.67;100.00;98379.06;5151495;27;20047;-53
2021/12/04 10:42:20;;;;;;;20.70;8.27;;;;;;;0.60;100.00;98357.16;5151615;27;20515;-51
2021/12/04 10:44:50;;;;;;;24.13;9.23;;;;;;;0.61;100.00;98335.28;5151231;27;20090;-50
2021/12/04 10:47:22;;;;;;;15.02;7.22;;;;;;;0.71;100.00;98344.94;5151360;27;20050;-51
2021/12/04 10:49:55;;;;;;;16.27;7.72;;;;;;;0.78;100.00;98307.47;5151121;27;20153;-49
2021/12/04 10:52:31;;;;;;;16.05;7.40;;;;;;;0.87;100.00;98304.78;5151219;27;20061;-51
2021/12/04 10:55:11;;;;;;;16.50;8.48;;;;;;;0.86;100.00;98260.78;5150948;27;20047;-52
2021/12/04 11:00:31;;;;;;;17.80;7.85;;;;;;;0.80;100.00;98223.50;5116603;27;20501;-52
2021/12/04 11:03:03;;;;;;;16.23;8.10;;;;;;;0.69;100.00;98185.31;5151205;27;20428;-52
2021/12/04 11:05:56;;;;;;;15.95;7.50;;;;;;;0.65;100.00;98198.66;5151255;27;20062;-50
2021/12/04 11:22:58;;;;;;;20.42;7.57;;;;;;;0.93;100.00;98084.88;5070582;28;20048;-51
2021/12/04 11:25:41;;;;;;;13.35;6.97;;;;;;;0.84;100.00;98046.38;5145998;27;20077;-50
2021/12/04 11:28:17;;;;;;;17.05;7.50;;;;;;;0.70;100.00;97998.88;5154353;27;20085;-50
2021/12/04 11:39:23;;;;;;;22.88;8.40;;;;;;;0.68;100.00;97930.16;5138274;27;20125;-52
2021/12/04 11:44:46;;;;;;;18.42;8.10;;;;;;;0.65;100.00;97955.09;5154608;27;20051;-53
2021/12/04 11:47:13;;;;;;;14.80;7.07;;;;;;;0.73;100.00;97954.22;5154026;27;20054;-52
2021/12/04 11:49:39;;;;;;;12.10;7.70;;;;;;;0.69;100.00;97929.81;5154250;27;20053;-53
2021/12/04 11:52:14;;;;;;;14.52;6.68;;;;;;;0.56;100.00;97912.00;5154101;27;20134;-51
2021/12/04 11:54:46;;;;;;;14.05;6.97;;;;;;;0.50;100.00;97912.53;5154115;27;20501;-50
2021/12/04 11:57:14;;;;;;;15.65;7.85;;;;;;;0.60;100.00;97934.53;5154034;27;20047;-52
2021/12/04 11:59:43;;;;;;;18.02;6.75;;;;;;;0.60;100.00;97928.31;5154200;27;20492;-50
2021/12/04 12:02:16;;;;;;;20.25;8.20;;;;;;;0.64;100.00;97916.56;5153836;27;20047;-50
2021/12/04 12:04:47;;;;;;;13.30;6.85;;;;;;;0.58;100.00;97914.38;5154003;27;20083;-51
2021/12/04 12:07:17;;;;;;;13.55;6.38;;;;;;;0.52;100.00;97911.09;5154005;27;20204;-53
2021/12/04 12:09:46;;;;;;;16.08;6.18;;;;;;;0.41;100.00;97912.63;5153861;27;20133;-52
2021/12/04 12:12:14;;;;;;;12.20;5.90;;;;;;;0.33;100.00;97911.53;5154153;27;20472;-52
2021/12/04 12:14:48;;;;;;;13.13;6.95;;;;;;;0.27;100.00;97904.78;5153986;27;20137;-51
2021/12/04 12:17:14;;;;;;;15.70;7.07;;;;;;;0.40;100.00;97927.19;5153749;27;20053;-50
2021/12/04 12:19:51;;;;;;;13.20;6.68;;;;;;;0.39;100.00;97909.44;5153742;27;20050;-51
2021/12/04 12:22:35;;;;;;;15.23;7.03;;;;;;;0.46;100.00;97910.50;5154199;27;20050;-51
2021/12/04 12:25:18;;;;;;;14.73;6.80;;;;;;;0.41;100.00;97861.38;5153753;27;20158;-50
2021/12/04 12:33:30;;;;;;;14.80;6.70;;;;;;;0.41;100.00;97889.13;5153679;27;20046;-50
2021/12/04 12:36:03;;;;;;;17.13;8.05;;;;;;;0.36;100.00;97858.88;5153646;27;20057;-49
2021/12/04 12:38:45;;;;;;;15.90;7.63;;;;;;;0.40;100.00;97892.97;5153473;27;20099;-51
2021/12/04 12:41:20;;;;;;;21.17;8.07;;;;;;;0.44;100.00;97883.09;5153365;27;20082;-50
2021/12/04 12:43:53;;;;;;;21.38;8.55;;;;;;;0.38;100.00;97841.25;5153212;27;20523;-51
2021/12/04 12:46:20;;;;;;;16.17;7.50;;;;;;;0.36;100.00;97853.47;5153400;27;20420;-50
2021/12/04 12:48:53;;;;;;;15.13;8.05;;;;;;;0.29;100.00;97839.75;5153466;27;20046;-53
2021/12/04 12:51:32;;;;;;;18.38;9.05;;;;;;;0.30;100.00;97855.59;5153955;27;20887;-52
2021/12/04 12:54:04;;;;;;;21.17;7.53;;;;;;;0.34;100.00;97896.16;5153181;27;20050;-53
2021/12/04 12:56:34;;;;;;;14.18;6.82;;;;;;;0.11;100.00;97879.53;5153161;27;20046;-52
2021/12/04 12:59:05;;;;;;;16.85;7.68;;;;;;;-0.08;100.00;97904.97;5153595;27;20079;-50
2021/12/04 13:12:48;;;;;;;20.58;7.53;;;;;;;-0.11;100.00;97981.06;5153059;27;20049;-50
2021/12/04 13:15:28;;;;;;;23.77;8.25;;;;;;;-0.09;100.00;97988.84;5152651;27;20082;-54
2021/12/04 13:17:55;;;;;;;17.88;8.43;;;;;;;0.05;100.00;98012.84;5153272;27;20899;-51
2021/12/04 13:20:22;;;;;;;20.10;8.40;;;;;;;0.08;100.00;97988.75;5153255;27;20141;-50
2021/12/04 13:22:49;;;;;;;16.17;8.68;;;;;;;0.08;100.00;97966.41;5153435;27;20185;-54
2021/12/04 13:25:16;;;;;;;21.17;9.15;;;;;;;0.06;100.00;97963.22;5153182;27;20138;-50
2021/12/04 13:30:12;;;;;;;19.45;8.77;;;;;;;0.09;100.00;97935.63;5152643;27;20091;-51
2021/12/04 13:32:42;;;;;;;18.13;8.15;;;;;;;0.12;100.00;97935.00;5152708;27;20095;-51
2021/12/04 13:35:11;;;;;;;22.25;8.43;;;;;;;-0.06;100.00;97916.22;5152513;27;20489;-54
2021/12/04 13:37:39;;;;;;;29.63;9.30;;;;;;;-0.08;100.00;97914.97;5152375;27;20047;-52
2021/12/04 13:40:09;;;;;;;25.80;9.02;;;;;;;-0.01;100.00;97961.84;5152568;27;20081;-53
2021/12/04 13:42:38;;;;;;;20.80;8.98;;;;;;;0.05;100.00;97961.66;5151558;27;20049;-53
2021/12/04 13:45:06;;;;;;;24.13;9.05;;;;;;;0.09;100.00;97968.75;5152329;27;20061;-52
2021/12/04 13:47:33;;;;;;;18.05;7.93;;;;;;;0.03;100.00;97953.88;5152504;27;20051;-54
2021/12/04 13:50:00;;;;;;;22.88;9.48;;;;;;;0.04;100.00;97954.69;5152101;27;20098;-53
2021/12/04 13:52:31;;;;;;;16.15;8.95;;;;;;;0.03;100.00;97923.47;5152618;27;20082;-52
2021/12/04 13:55:03;;;;;;;20.70;9.50;;;;;;;-0.02;100.00;97910.97;5152433;27;20131;-50
2021/12/04 13:57:30;;;;;;;16.48;9.20;;;;;;;-0.02;100.00;97927.16;5152330;27;20046;-50